sensor_id;sensor_type;location;lat;lon;timestamp;temperature;humidity
9800;DHT22;4939;52.00085300;4.17406100;2023-04-24T00:00:24;9.50;99.90
9800;DHT22;4939;52.00085300;4.17406100;2023-04-24T00:02:49;9.50;99.90
9800;DHT22;4939;52.00085300;4.17406100;2023-04-24T00:05:17;9.40;99.90
9800;DHT22;4939;52.00085300;4.17406100;2023-04-24T00:07:44;9.50;99.90
9800;DHT22;4939;52.00085300;4.17406100;2023-04-24T00:10:10;9.50;99.90
9800;DHT22;4939;52.00085300;4.17406100;2023-04-24T00:12:36;9.60;99.90
9800;DHT22;4939;52.00085300;4.17406100;2023-04-24T00:15:02;9.50;99.90
9800;DHT22;4939;52.00085300;4.17406100;2023-04-24T00:17:28;9.50;99.90
9800;DHT22;4939;52.00085300;4.17406100;2023-04-24T00:19:54;9.50;99.90
9800;DHT22;4939;52.00085300;4.17406100;2023-04-24T00:22:27;9.50;99.90
9800;DHT22;4939;52.00085300;4.17406100;2023-04-24T00:24:54;9.60;99.90
9800;DHT22;4939;52.00085300;4.17406100;2023-04-24T00:27:20;9.60;99.90
9800;DHT22;4939;52.00085300;4.17406100;2023-04-24T00:29:46;9.50;99.90
9800;DHT22;4939;52.00085300;4.17406100;2023-04-24T00:32:12;9.50;99.90
9800;DHT22;4939;52.00085300;4.17406100;2023-04-24T00:34:37;9.50;99.90
9800;DHT22;4939;52.00085300;4.17406100;2023-04-24T00:37:03;9.50;99.90
9800;DHT22;4939;52.00085300;4.17406100;2023-04-24T00:39:29;9.50;99.90
9800;DHT22;4939;52.00085300;4.17406100;2023-04-24T00:41:55;9.50;99.90
9800;DHT22;4939;52.00085300;4.17406100;2023-04-24T00:44:22;9.40;99.90
9800;DHT22;4939;52.00085300;4.17406100;2023-04-24T00:46:49;9.40;99.90
9800;DHT22;4939;52.00085300;4.17406100;2023-04-24T00:49:23;9.30;99.90
9800;DHT22;4939;52.00085300;4.17406100;2023-04-24T00:51:49;9.30;99.90
9800;DHT22;4939;52.00085300;4.17406100;2023-04-24T00:54:17;9.40;99.90
9800;DHT22;4939;52.00085300;4.17406100;2023-04-24T00:56:44;9.40;99.90
9800;DHT22;4939;52.00085300;4.17406100;2023-04-24T00:59:13;9.40;99.90
9800;DHT22;4939;52.00085300;4.17406100;2023-04-24T01:01:39;9.40;99.90
9800;DHT22;4939;52.00085300;4.17406100;2023-04-24T01:04:09;9.50;99.90
9800;DHT22;4939;52.00085300;4.17406100;2023-04-24T01:06:39;9.50;99.90
9800;DHT22;4939;52.00085300;4.17406100;2023-04-24T01:09:05;9.60;99.90
9800;DHT22;4939;52.00085300;4.17406100;2023-04-24T01:11:33;9.60;99.90
9800;DHT22;4939;52.00085300;4.17406100;2023-04-24T01:13:59;9.60;99.90
9800;DHT22;4939;52.00085300;4.17406100;2023-04-24T01:16:25;9.60;99.90
9800;DHT22;4939;52.00085300;4.17406100;2023-04-24T01:18:51;9.60;99.90
9800;DHT22;4939;52.00085300;4.17406100;2023-04-24T01:21:18;9.60;99.90
9800;DHT22;4939;52.00085300;4.17406100;2023-04-24T01:23:46;9.60;99.90
9800;DHT22;4939;52.00085300;4.17406100;2023-04-24T01:26:13;9.60;99.90
9800;DHT22;4939;52.00085300;4.17406100;2023-04-24T01:28:39;9.50;99.90
9800;DHT22;4939;52.00085300;4.17406100;2023-04-24T01:31:05;9.50;99.90
9800;DHT22;4939;52.00085300;4.17406100;2023-04-24T01:33:31;9.60;99.90
9800;DHT22;4939;52.00085300;4.17406100;2023-04-24T01:35:57;9.50;99.90
9800;DHT22;4939;52.00085300;4.17406100;2023-04-24T01:38:23;9.50;99.90
9800;DHT22;4939;52.00085300;4.17406100;2023-04-24T01:40:49;9.50;99.90
9800;DHT22;4939;52.00085300;4.17406100;2023-04-24T01:45:41;9.60;99.90
9800;DHT22;4939;52.00085300;4.17406100;2023-04-24T01:48:07;9.50;99.90
9800;DHT22;4939;52.00085300;4.17406100;2023-04-24T01:50:33;9.60;99.90
9800;DHT22;4939;52.00085300;4.17406100;2023-04-24T01:52:58;9.60;99.90
9800;DHT22;4939;52.00085300;4.17406100;2023-04-24T01:55:24;9.50;99.90
9800;DHT22;4939;52.00085300;4.17406100;2023-04-24T01:57:52;9.50;99.90
9800;DHT22;4939;52.00085300;4.17406100;2023-04-24T02:00:17;9.70;99.90
9800;DHT22;4939;52.00085300;4.17406100;2023-04-24T02:02:44;9.50;99.90
9800;DHT22;4939;52.00085300;4.17406100;2023-04-24T02:05:10;9.50;99.90
9800;DHT22;4939;52.00085300;4.17406100;2023-04-24T02:07:36;9.50;99.90
9800;DHT22;4939;52.00085300;4.17406100;2023-04-24T02:10:03;9.50;99.90
9800;DHT22;4939;52.00085300;4.17406100;2023-04-24T02:12:29;9.50;99.90
9800;DHT22;4939;52.00085300;4.17406100;2023-04-24T02:14:55;9.40;99.90
9800;DHT22;4939;52.00085300;4.17406100;2023-04-24T02:17:28;9.30;99.90
9800;DHT22;4939;52.00085300;4.17406100;2023-04-24T02:19:53;9.30;99.90
9800;DHT22;4939;52.00085300;4.17406100;2023-04-24T02:22:19;9.30;99.90
9800;DHT22;4939;52.00085300;4.17406100;2023-04-24T02:24:45;9.30;99.90
9800;DHT22;4939;52.00085300;4.17406100;2023-04-24T02:27:11;9.40;99.90
9800;DHT22;4939;52.00085300;4.17406100;2023-04-24T02:29:37;9.40;99.90
9800;DHT22;4939;52.00085300;4.17406100;2023-04-24T02:32:02;9.40;99.90
9800;DHT22;4939;52.00085300;4.17406100;2023-04-24T02:34:28;9.40;99.90
9800;DHT22;4939;52.00085300;4.17406100;2023-04-24T02:36:54;9.40;99.90
9800;DHT22;4939;52.00085300;4.17406100;2023-04-24T02:39:20;9.50;99.90
9800;DHT22;4939;52.00085300;4.17406100;2023-04-24T02:41:45;9.50;99.90
9800;DHT22;4939;52.00085300;4.17406100;2023-04-24T02:44:11;9.50;99.90
9800;DHT22;4939;52.00085300;4.17406100;2023-04-24T02:46:37;9.50;99.90
9800;DHT22;4939;52.00085300;4.17406100;2023-04-24T02:49:03;9.50;99.90
9800;DHT22;4939;52.00085300;4.17406100;2023-04-24T02:51:29;9.40;99.90
9800;DHT22;4939;52.00085300;4.17406100;2023-04-24T02:53:55;9.40;99.90
9800;DHT22;4939;52.00085300;4.17406100;2023-04-24T02:56:21;9.40;99.90
9800;DHT22;4939;52.00085300;4.17406100;2023-04-24T02:58:46;9.50;99.90
9800;DHT22;4939;52.00085300;4.17406100;2023-04-24T03:01:12;9.50;99.90
9800;DHT22;4939;52.00085300;4.17406100;2023-04-24T03:03:39;9.50;99.90
9800;DHT22;4939;52.00085300;4.17406100;2023-04-24T03:06:05;9.60;99.90
9800;DHT22;4939;52.00085300;4.17406100;2023-04-24T03:08:32;9.60;99.90
9800;DHT22;4939;52.00085300;4.17406100;2023-04-24T03:10:57;9.60;99.90
9800;DHT22;4939;52.00085300;4.17406100;2023-04-24T03:13:23;9.60;99.90
9800;DHT22;4939;52.00085300;4.17406100;2023-04-24T03:15:49;9.60;99.90
9800;DHT22;4939;52.00085300;4.17406100;2023-04-24T03:18:15;9.60;99.90
9800;DHT22;4939;52.00085300;4.17406100;2023-04-24T03:20:40;9.60;99.90
9800;DHT22;4939;52.00085300;4.17406100;2023-04-24T03:23:06;9.60;99.90
9800;DHT22;4939;52.00085300;4.17406100;2023-04-24T03:25:32;9.50;99.90
9800;DHT22;4939;52.00085300;4.17406100;2023-04-24T03:27:57;9.60;99.90
9800;DHT22;4939;52.00085300;4.17406100;2023-04-24T03:30:23;9.60;99.90
9800;DHT22;4939;52.00085300;4.17406100;2023-04-24T03:32:49;9.60;99.90
9800;DHT22;4939;52.00085300;4.17406100;2023-04-24T03:35:15;9.60;99.90
9800;DHT22;4939;52.00085300;4.17406100;2023-04-24T03:37:40;9.40;99.90
9800;DHT22;4939;52.00085300;4.17406100;2023-04-24T03:40:06;9.40;99.90
9800;DHT22;4939;52.00085300;4.17406100;2023-04-24T03:42:33;9.40;99.90
9800;DHT22;4939;52.00085300;4.17406100;2023-04-24T03:44:59;9.30;99.90
9800;DHT22;4939;52.00085300;4.17406100;2023-04-24T03:47:24;9.20;99.90
9800;DHT22;4939;52.00085300;4.17406100;2023-04-24T03:49:50;9.10;99.90
9800;DHT22;4939;52.00085300;4.17406100;2023-04-24T03:52:16;9.10;99.90
9800;DHT22;4939;52.00085300;4.17406100;2023-04-24T03:54:42;9.10;99.90
9800;DHT22;4939;52.00085300;4.17406100;2023-04-24T03:57:07;9.00;99.90
9800;DHT22;4939;52.00085300;4.17406100;2023-04-24T04:01:59;9.00;99.90
9800;DHT22;4939;52.00085300;4.17406100;2023-04-24T04:04:25;8.80;99.90
9800;DHT22;4939;52.00085300;4.17406100;2023-04-24T04:06:51;8.80;99.90
9800;DHT22;4939;52.00085300;4.17406100;2023-04-24T04:11:44;8.90;99.90
9800;DHT22;4939;52.00085300;4.17406100;2023-04-24T04:16:35;8.80;99.90
9800;DHT22;4939;52.00085300;4.17406100;2023-04-24T04:19:04;8.80;99.90
9800;DHT22;4939;52.00085300;4.17406100;2023-04-24T04:21:30;8.70;99.90
9800;DHT22;4939;52.00085300;4.17406100;2023-04-24T04:23:57;8.80;99.90
9800;DHT22;4939;52.00085300;4.17406100;2023-04-24T04:26:23;8.80;99.90
9800;DHT22;4939;52.00085300;4.17406100;2023-04-24T04:28:52;8.80;99.90
9800;DHT22;4939;52.00085300;4.17406100;2023-04-24T04:31:21;8.70;99.90
9800;DHT22;4939;52.00085300;4.17406100;2023-04-24T04:33:48;8.70;99.90
9800;DHT22;4939;52.00085300;4.17406100;2023-04-24T04:36:14;8.70;99.90
9800;DHT22;4939;52.00085300;4.17406100;2023-04-24T04:38:40;8.70;99.90
9800;DHT22;4939;52.00085300;4.17406100;2023-04-24T04:41:06;8.70;99.90
9800;DHT22;4939;52.00085300;4.17406100;2023-04-24T04:43:32;8.60;99.90
9800;DHT22;4939;52.00085300;4.17406100;2023-04-24T04:45:59;8.60;99.90
9800;DHT22;4939;52.00085300;4.17406100;2023-04-24T04:48:27;8.50;99.90
9800;DHT22;4939;52.00085300;4.17406100;2023-04-24T04:55:45;8.50;99.90
9800;DHT22;4939;52.00085300;4.17406100;2023-04-24T05:00:38;8.50;99.90
9800;DHT22;4939;52.00085300;4.17406100;2023-04-24T05:03:03;8.60;99.90
9800;DHT22;4939;52.00085300;4.17406100;2023-04-24T05:05:29;8.70;99.90
9800;DHT22;4939;52.00085300;4.17406100;2023-04-24T05:07:55;8.70;99.90
9800;DHT22;4939;52.00085300;4.17406100;2023-04-24T05:10:21;8.80;99.90
9800;DHT22;4939;52.00085300;4.17406100;2023-04-24T05:12:46;8.70;99.90
9800;DHT22;4939;52.00085300;4.17406100;2023-04-24T05:15:12;8.70;99.90
9800;DHT22;4939;52.00085300;4.17406100;2023-04-24T05:17:38;8.80;99.90
9800;DHT22;4939;52.00085300;4.17406100;2023-04-24T05:20:06;8.80;99.90
9800;DHT22;4939;52.00085300;4.17406100;2023-04-24T05:22:32;8.80;99.90
9800;DHT22;4939;52.00085300;4.17406100;2023-04-24T05:24:57;8.80;99.90
9800;DHT22;4939;52.00085300;4.17406100;2023-04-24T05:27:24;8.80;99.90
9800;DHT22;4939;52.00085300;4.17406100;2023-04-24T05:29:50;8.80;99.90
9800;DHT22;4939;52.00085300;4.17406100;2023-04-24T05:32:16;8.90;99.90
9800;DHT22;4939;52.00085300;4.17406100;2023-04-24T05:34:42;8.80;99.90
9800;DHT22;4939;52.00085300;4.17406100;2023-04-24T05:37:08;8.70;99.90
9800;DHT22;4939;52.00085300;4.17406100;2023-04-24T05:39:36;8.80;99.90
9800;DHT22;4939;52.00085300;4.17406100;2023-04-24T05:42:02;8.80;99.90
9800;DHT22;4939;52.00085300;4.17406100;2023-04-24T05:44:30;8.70;99.90
9800;DHT22;4939;52.00085300;4.17406100;2023-04-24T05:46:56;8.70;99.90
9800;DHT22;4939;52.00085300;4.17406100;2023-04-24T05:49:22;8.80;99.90
9800;DHT22;4939;52.00085300;4.17406100;2023-04-24T05:51:48;8.80;99.90
9800;DHT22;4939;52.00085300;4.17406100;2023-04-24T05:54:14;8.70;99.90
9800;DHT22;4939;52.00085300;4.17406100;2023-04-24T05:56:40;8.70;99.90
9800;DHT22;4939;52.00085300;4.17406100;2023-04-24T05:59:06;8.70;99.90
9800;DHT22;4939;52.00085300;4.17406100;2023-04-24T06:01:31;8.80;99.90
9800;DHT22;4939;52.00085300;4.17406100;2023-04-24T06:03:58;8.80;99.90
9800;DHT22;4939;52.00085300;4.17406100;2023-04-24T06:06:24;8.90;99.90
9800;DHT22;4939;52.00085300;4.17406100;2023-04-24T06:08:50;8.80;99.90
9800;DHT22;4939;52.00085300;4.17406100;2023-04-24T06:11:15;8.80;99.90
9800;DHT22;4939;52.00085300;4.17406100;2023-04-24T06:13:41;8.90;99.90
9800;DHT22;4939;52.00085300;4.17406100;2023-04-24T06:16:07;8.90;99.90
9800;DHT22;4939;52.00085300;4.17406100;2023-04-24T06:20:59;8.90;99.90
9800;DHT22;4939;52.00085300;4.17406100;2023-04-24T06:23:25;9.00;99.90
9800;DHT22;4939;52.00085300;4.17406100;2023-04-24T06:25:51;9.00;99.90
9800;DHT22;4939;52.00085300;4.17406100;2023-04-24T06:28:17;9.00;99.90
9800;DHT22;4939;52.00085300;4.17406100;2023-04-24T06:33:09;9.10;99.90
9800;DHT22;4939;52.00085300;4.17406100;2023-04-24T06:35:36;9.00;99.90
9800;DHT22;4939;52.00085300;4.17406100;2023-04-24T06:38:03;9.00;99.90
9800;DHT22;4939;52.00085300;4.17406100;2023-04-24T06:40:29;9.00;99.90
9800;DHT22;4939;52.00085300;4.17406100;2023-04-24T06:42:55;9.00;99.90
9800;DHT22;4939;52.00085300;4.17406100;2023-04-24T06:45:21;9.00;99.90
9800;DHT22;4939;52.00085300;4.17406100;2023-04-24T06:47:47;8.90;99.90
9800;DHT22;4939;52.00085300;4.17406100;2023-04-24T06:50:12;9.00;99.90
9800;DHT22;4939;52.00085300;4.17406100;2023-04-24T06:52:40;8.90;99.90
9800;DHT22;4939;52.00085300;4.17406100;2023-04-24T06:55:06;9.00;99.90
9800;DHT22;4939;52.00085300;4.17406100;2023-04-24T06:57:32;9.00;99.90
9800;DHT22;4939;52.00085300;4.17406100;2023-04-24T06:59:58;9.00;99.90
9800;DHT22;4939;52.00085300;4.17406100;2023-04-24T07:02:25;9.00;99.90
9800;DHT22;4939;52.00085300;4.17406100;2023-04-24T07:04:50;9.00;99.90
9800;DHT22;4939;52.00085300;4.17406100;2023-04-24T07:07:16;9.10;99.90
9800;DHT22;4939;52.00085300;4.17406100;2023-04-24T07:09:42;9.10;99.90
9800;DHT22;4939;52.00085300;4.17406100;2023-04-24T07:12:08;9.00;99.90
9800;DHT22;4939;52.00085300;4.17406100;2023-04-24T07:14:36;9.00;99.90
9800;DHT22;4939;52.00085300;4.17406100;2023-04-24T07:17:04;9.00;99.90
9800;DHT22;4939;52.00085300;4.17406100;2023-04-24T07:19:33;9.00;99.90
9800;DHT22;4939;52.00085300;4.17406100;2023-04-24T07:21:59;9.00;99.90
9800;DHT22;4939;52.00085300;4.17406100;2023-04-24T07:24:25;9.00;99.90
9800;DHT22;4939;52.00085300;4.17406100;2023-04-24T07:26:52;8.90;99.90
9800;DHT22;4939;52.00085300;4.17406100;2023-04-24T07:29:18;8.90;99.90
9800;DHT22;4939;52.00085300;4.17406100;2023-04-24T07:31:45;8.90;99.90
9800;DHT22;4939;52.00085300;4.17406100;2023-04-24T07:36:37;8.80;99.90
9800;DHT22;4939;52.00085300;4.17406100;2023-04-24T07:39:04;9.00;99.90
9800;DHT22;4939;52.00085300;4.17406100;2023-04-24T07:41:30;9.00;99.90
9800;DHT22;4939;52.00085300;4.17406100;2023-04-24T07:43:56;9.00;99.90
9800;DHT22;4939;52.00085300;4.17406100;2023-04-24T07:48:49;9.00;99.90
9800;DHT22;4939;52.00085300;4.17406100;2023-04-24T07:51:15;9.00;99.90
9800;DHT22;4939;52.00085300;4.17406100;2023-04-24T07:53:41;9.00;99.90
9800;DHT22;4939;52.00085300;4.17406100;2023-04-24T07:56:07;9.00;99.90
9800;DHT22;4939;52.00085300;4.17406100;2023-04-24T07:58:33;9.00;99.90
9800;DHT22;4939;52.00085300;4.17406100;2023-04-24T08:00:59;9.10;99.90
9800;DHT22;4939;52.00085300;4.17406100;2023-04-24T08:03:24;9.10;99.90
9800;DHT22;4939;52.00085300;4.17406100;2023-04-24T08:05:50;9.20;99.90
9800;DHT22;4939;52.00085300;4.17406100;2023-04-24T08:08:16;9.20;99.90
9800;DHT22;4939;52.00085300;4.17406100;2023-04-24T08:10:42;9.20;99.90
9800;DHT22;4939;52.00085300;4.17406100;2023-04-24T08:13:08;9.20;99.90
9800;DHT22;4939;52.00085300;4.17406100;2023-04-24T08:15:34;9.20;99.90
9800;DHT22;4939;52.00085300;4.17406100;2023-04-24T08:18:00;9.20;99.90
9800;DHT22;4939;52.00085300;4.17406100;2023-04-24T08:20:26;9.10;99.90
9800;DHT22;4939;52.00085300;4.17406100;2023-04-24T08:22:52;9.00;99.90
9800;DHT22;4939;52.00085300;4.17406100;2023-04-24T08:25:18;8.90;99.90
9800;DHT22;4939;52.00085300;4.17406100;2023-04-24T08:27:44;8.90;99.90
9800;DHT22;4939;52.00085300;4.17406100;2023-04-24T08:30:10;8.90;99.90
9800;DHT22;4939;52.00085300;4.17406100;2023-04-24T08:32:36;9.00;99.90
9800;DHT22;4939;52.00085300;4.17406100;2023-04-24T08:35:02;9.00;99.90
9800;DHT22;4939;52.00085300;4.17406100;2023-04-24T08:37:29;9.00;99.90
9800;DHT22;4939;52.00085300;4.17406100;2023-04-24T08:39:54;9.00;99.90
9800;DHT22;4939;52.00085300;4.17406100;2023-04-24T08:42:21;8.90;99.90
9800;DHT22;4939;52.00085300;4.17406100;2023-04-24T08:44:48;8.90;99.90
9800;DHT22;4939;52.00085300;4.17406100;2023-04-24T08:47:15;8.60;99.90
9800;DHT22;4939;52.00085300;4.17406100;2023-04-24T08:49:41;8.60;99.90
9800;DHT22;4939;52.00085300;4.17406100;2023-04-24T08:52:08;8.60;99.90
9800;DHT22;4939;52.00085300;4.17406100;2023-04-24T08:54:34;8.60;99.90
9800;DHT22;4939;52.00085300;4.17406100;2023-04-24T08:57:01;8.80;99.90
9800;DHT22;4939;52.00085300;4.17406100;2023-04-24T08:59:31;8.90;99.90
9800;DHT22;4939;52.00085300;4.17406100;2023-04-24T09:01:57;9.10;99.90
9800;DHT22;4939;52.00085300;4.17406100;2023-04-24T09:04:24;9.20;99.90
9800;DHT22;4939;52.00085300;4.17406100;2023-04-24T09:06:57;9.20;99.90
9800;DHT22;4939;52.00085300;4.17406100;2023-04-24T09:09:30;9.20;99.90
9800;DHT22;4939;52.00085300;4.17406100;2023-04-24T09:11:58;9.20;99.90
9800;DHT22;4939;52.00085300;4.17406100;2023-04-24T09:14:24;9.20;99.90
9800;DHT22;4939;52.00085300;4.17406100;2023-04-24T09:16:50;9.10;99.90
9800;DHT22;4939;52.00085300;4.17406100;2023-04-24T09:19:16;9.30;99.90
9800;DHT22;4939;52.00085300;4.17406100;2023-04-24T09:21:45;9.30;99.90
9800;DHT22;4939;52.00085300;4.17406100;2023-04-24T09:24:20;9.60;99.90
9800;DHT22;4939;52.00085300;4.17406100;2023-04-24T09:26:49;9.60;99.90
9800;DHT22;4939;52.00085300;4.17406100;2023-04-24T09:29:18;9.60;99.90
9800;DHT22;4939;52.00085300;4.17406100;2023-04-24T09:31:45;9.70;99.90
9800;DHT22;4939;52.00085300;4.17406100;2023-04-24T09:34:11;9.70;99.90
9800;DHT22;4939;52.00085300;4.17406100;2023-04-24T09:36:38;9.70;99.90
9800;DHT22;4939;52.00085300;4.17406100;2023-04-24T09:39:05;9.90;99.90
9800;DHT22;4939;52.00085300;4.17406100;2023-04-24T09:41:32;9.90;99.90
9800;DHT22;4939;52.00085300;4.17406100;2023-04-24T09:44:16;9.90;99.90
9800;DHT22;4939;52.00085300;4.17406100;2023-04-24T09:46:44;9.60;99.90
9800;DHT22;4939;52.00085300;4.17406100;2023-04-24T09:49:13;9.30;99.90
9800;DHT22;4939;52.00085300;4.17406100;2023-04-24T09:51:40;9.10;99.90
9800;DHT22;4939;52.00085300;4.17406100;2023-04-24T09:54:16;9.10;99.90
9800;DHT22;4939;52.00085300;4.17406100;2023-04-24T09:56:49;9.10;99.90
9800;DHT22;4939;52.00085300;4.17406100;2023-04-24T09:59:17;9.20;99.90
9800;DHT22;4939;52.00085300;4.17406100;2023-04-24T10:01:43;9.20;99.90
9800;DHT22;4939;52.00085300;4.17406100;2023-04-24T10:04:24;9.30;99.90
9800;DHT22;4939;52.00085300;4.17406100;2023-04-24T10:06:52;9.40;99.90
9800;DHT22;4939;52.00085300;4.17406100;2023-04-24T10:09:19;9.60;99.90
9800;DHT22;4939;52.00085300;4.17406100;2023-04-24T10:11:50;9.60;99.90
9800;DHT22;4939;52.00085300;4.17406100;2023-04-24T10:14:18;9.80;99.90
9800;DHT22;4939;52.00085300;4.17406100;2023-04-24T10:16:44;9.80;99.90
9800;DHT22;4939;52.00085300;4.17406100;2023-04-24T10:19:12;10.10;99.90
9800;DHT22;4939;52.00085300;4.17406100;2023-04-24T10:21:40;10.10;99.90
9800;DHT22;4939;52.00085300;4.17406100;2023-04-24T10:24:12;10.20;99.90
9800;DHT22;4939;52.00085300;4.17406100;2023-04-24T10:26:38;10.20;99.90
9800;DHT22;4939;52.00085300;4.17406100;2023-04-24T10:29:06;10.50;99.90
9800;DHT22;4939;52.00085300;4.17406100;2023-04-24T10:31:36;10.80;99.90
9800;DHT22;4939;52.00085300;4.17406100;2023-04-24T10:34:04;10.80;99.90
9800;DHT22;4939;52.00085300;4.17406100;2023-04-24T10:36:31;10.50;99.90
9800;DHT22;4939;52.00085300;4.17406100;2023-04-24T10:39:00;10.10;99.90
9800;DHT22;4939;52.00085300;4.17406100;2023-04-24T10:41:26;9.50;99.90
9800;DHT22;4939;52.00085300;4.17406100;2023-04-24T10:44:09;9.40;99.90
9800;DHT22;4939;52.00085300;4.17406100;2023-04-24T10:46:38;9.50;99.90
9800;DHT22;4939;52.00085300;4.17406100;2023-04-24T10:49:07;9.70;99.90
9800;DHT22;4939;52.00085300;4.17406100;2023-04-24T10:51:47;9.80;99.90
9800;DHT22;4939;52.00085300;4.17406100;2023-04-24T10:54:26;10.10;99.90
9800;DHT22;4939;52.00085300;4.17406100;2023-04-24T10:56:52;10.20;99.90
9800;DHT22;4939;52.00085300;4.17406100;2023-04-24T10:59:26;10.50;99.90
9800;DHT22;4939;52.00085300;4.17406100;2023-04-24T11:01:55;10.50;99.90
9800;DHT22;4939;52.00085300;4.17406100;2023-04-24T11:04:32;10.30;99.90
9800;DHT22;4939;52.00085300;4.17406100;2023-04-24T11:06:58;10.30;99.90
9800;DHT22;4939;52.00085300;4.17406100;2023-04-24T11:09:27;10.30;99.90
9800;DHT22;4939;52.00085300;4.17406100;2023-04-24T11:12:06;10.40;99.90
9800;DHT22;4939;52.00085300;4.17406100;2023-04-24T11:17:34;10.10;99.90
9800;DHT22;4939;52.00085300;4.17406100;2023-04-24T11:20:07;10.10;99.90
9800;DHT22;4939;52.00085300;4.17406100;2023-04-24T11:22:34;10.20;99.90
9800;DHT22;4939;52.00085300;4.17406100;2023-04-24T11:25:01;10.40;99.90
9800;DHT22;4939;52.00085300;4.17406100;2023-04-24T11:27:40;10.40;99.90
9800;DHT22;4939;52.00085300;4.17406100;2023-04-24T11:30:07;10.30;99.90
9800;DHT22;4939;52.00085300;4.17406100;2023-04-24T11:35:01;10.50;99.90
9800;DHT22;4939;52.00085300;4.17406100;2023-04-24T11:37:39;10.50;99.90
9800;DHT22;4939;52.00085300;4.17406100;2023-04-24T11:40:10;10.50;99.90
9800;DHT22;4939;52.00085300;4.17406100;2023-04-24T11:42:38;10.70;99.90
9800;DHT22;4939;52.00085300;4.17406100;2023-04-24T11:45:11;10.50;99.90
9800;DHT22;4939;52.00085300;4.17406100;2023-04-24T11:47:38;10.40;99.90
9800;DHT22;4939;52.00085300;4.17406100;2023-04-24T11:50:06;10.30;99.90
9800;DHT22;4939;52.00085300;4.17406100;2023-04-24T11:52:36;10.30;99.90
9800;DHT22;4939;52.00085300;4.17406100;2023-04-24T11:55:02;10.40;99.90
9800;DHT22;4939;52.00085300;4.17406100;2023-04-24T11:57:29;10.20;99.90
9800;DHT22;4939;52.00085300;4.17406100;2023-04-24T12:00:03;10.20;99.90
9800;DHT22;4939;52.00085300;4.17406100;2023-04-24T12:02:30;10.00;99.90
9800;DHT22;4939;52.00085300;4.17406100;2023-04-24T12:04:56;10.30;99.90
9800;DHT22;4939;52.00085300;4.17406100;2023-04-24T12:07:23;10.60;99.90
9800;DHT22;4939;52.00085300;4.17406100;2023-04-24T12:09:57;10.60;99.90
9800;DHT22;4939;52.00085300;4.17406100;2023-04-24T12:12:26;10.70;99.90
9800;DHT22;4939;52.00085300;4.17406100;2023-04-24T12:14:56;11.00;99.90
9800;DHT22;4939;52.00085300;4.17406100;2023-04-24T12:17:30;11.00;99.90
9800;DHT22;4939;52.00085300;4.17406100;2023-04-24T12:20:05;10.60;99.90
9800;DHT22;4939;52.00085300;4.17406100;2023-04-24T12:22:51;10.50;99.90
9800;DHT22;4939;52.00085300;4.17406100;2023-04-24T12:25:25;10.50;99.90
9800;DHT22;4939;52.00085300;4.17406100;2023-04-24T12:28:15;10.60;99.90
9800;DHT22;4939;52.00085300;4.17406100;2023-04-24T12:30:47;10.60;99.90
9800;DHT22;4939;52.00085300;4.17406100;2023-04-24T12:33:21;10.40;99.90
9800;DHT22;4939;52.00085300;4.17406100;2023-04-24T12:35:48;10.30;99.90
9800;DHT22;4939;52.00085300;4.17406100;2023-04-24T12:38:15;10.40;99.90
9800;DHT22;4939;52.00085300;4.17406100;2023-04-24T12:40:42;10.60;99.90
9800;DHT22;4939;52.00085300;4.17406100;2023-04-24T12:43:18;10.80;99.90
9800;DHT22;4939;52.00085300;4.17406100;2023-04-24T12:45:44;10.90;99.90
9800;DHT22;4939;52.00085300;4.17406100;2023-04-24T12:48:11;10.80;99.90
9800;DHT22;4939;52.00085300;4.17406100;2023-04-24T12:50:38;10.50;99.90
9800;DHT22;4939;52.00085300;4.17406100;2023-04-24T12:53:03;10.00;99.90
9800;DHT22;4939;52.00085300;4.17406100;2023-04-24T12:55:29;10.00;99.90
9800;DHT22;4939;52.00085300;4.17406100;2023-04-24T13:00:21;9.50;99.90
9800;DHT22;4939;52.00085300;4.17406100;2023-04-24T13:05:13;9.50;99.90
9800;DHT22;4939;52.00085300;4.17406100;2023-04-24T13:07:39;10.10;99.90
9800;DHT22;4939;52.00085300;4.17406100;2023-04-24T13:10:05;10.30;99.90
9800;DHT22;4939;52.00085300;4.17406100;2023-04-24T13:12:32;10.30;99.90
9800;DHT22;4939;52.00085300;4.17406100;2023-04-24T13:14:58;10.10;99.90
9800;DHT22;4939;52.00085300;4.17406100;2023-04-24T13:17:24;10.30;99.90
9800;DHT22;4939;52.00085300;4.17406100;2023-04-24T13:19:51;10.30;99.90
9800;DHT22;4939;52.00085300;4.17406100;2023-04-24T13:22:17;10.40;99.90
9800;DHT22;4939;52.00085300;4.17406100;2023-04-24T13:24:46;10.40;99.90
9800;DHT22;4939;52.00085300;4.17406100;2023-04-24T13:27:18;10.30;99.90
9800;DHT22;4939;52.00085300;4.17406100;2023-04-24T13:29:43;10.30;99.90
9800;DHT22;4939;52.00085300;4.17406100;2023-04-24T13:32:09;10.20;99.90
9800;DHT22;4939;52.00085300;4.17406100;2023-04-24T13:34:35;10.10;99.90
9800;DHT22;4939;52.00085300;4.17406100;2023-04-24T13:37:02;10.20;99.90
9800;DHT22;4939;52.00085300;4.17406100;2023-04-24T13:39:31;10.30;99.90
9800;DHT22;4939;52.00085300;4.17406100;2023-04-24T13:41:58;10.40;99.90
9800;DHT22;4939;52.00085300;4.17406100;2023-04-24T13:44:23;10.70;99.90
9800;DHT22;4939;52.00085300;4.17406100;2023-04-24T13:46:52;10.70;99.90
9800;DHT22;4939;52.00085300;4.17406100;2023-04-24T13:49:20;10.70;99.90
9800;DHT22;4939;52.00085300;4.17406100;2023-04-24T13:54:11;10.50;99.90
9800;DHT22;4939;52.00085300;4.17406100;2023-04-24T13:56:39;10.50;99.90
9800;DHT22;4939;52.00085300;4.17406100;2023-04-24T13:59:06;10.50;99.90
9800;DHT22;4939;52.00085300;4.17406100;2023-04-24T14:01:32;10.50;99.90
9800;DHT22;4939;52.00085300;4.17406100;2023-04-24T14:03:58;10.50;99.90
9800;DHT22;4939;52.00085300;4.17406100;2023-04-24T14:06:23;10.50;99.90
9800;DHT22;4939;52.00085300;4.17406100;2023-04-24T14:08:49;10.40;99.90
9800;DHT22;4939;52.00085300;4.17406100;2023-04-24T14:11:16;10.30;99.90
9800;DHT22;4939;52.00085300;4.17406100;2023-04-24T14:13:42;10.30;99.90
9800;DHT22;4939;52.00085300;4.17406100;2023-04-24T14:16:10;10.30;99.90
9800;DHT22;4939;52.00085300;4.17406100;2023-04-24T14:18:36;10.20;99.90
9800;DHT22;4939;52.00085300;4.17406100;2023-04-24T14:21:05;10.10;99.90
9800;DHT22;4939;52.00085300;4.17406100;2023-04-24T14:23:31;10.20;99.90
9800;DHT22;4939;52.00085300;4.17406100;2023-04-24T14:25:57;10.30;99.90
9800;DHT22;4939;52.00085300;4.17406100;2023-04-24T14:28:23;11.00;99.90
9800;DHT22;4939;52.00085300;4.17406100;2023-04-24T14:30:49;11.10;99.90
9800;DHT22;4939;52.00085300;4.17406100;2023-04-24T14:33:15;11.00;99.90